sensor_id;sensor_type;location;lat;lon;timestamp;temperature;humidity
43647;DHT22;56152;49.996;18.980;2022-11-25T00:03:04;1.30;99.50
43647;DHT22;56152;49.996;18.980;2022-11-25T00:08:12;1.30;99.50
43647;DHT22;56152;49.996;18.980;2022-11-25T00:13:14;1.40;99.50
43647;DHT22;56152;49.996;18.980;2022-11-25T00:18:16;1.50;99.50
43647;DHT22;56152;49.996;18.980;2022-11-25T00:23:19;1.60;99.50
43647;DHT22;56152;49.996;18.980;2022-11-25T00:28:23;1.70;99.40
43647;DHT22;56152;49.996;18.980;2022-11-25T00:33:25;1.80;99.30
43647;DHT22;56152;49.996;18.980;2022-11-25T00:38:29;1.90;99.30
43647;DHT22;56152;49.996;18.980;2022-11-25T00:43:34;2.00;99.20
43647;DHT22;56152;49.996;18.980;2022-11-25T00:48:54;2.10;99.20
43647;DHT22;56152;49.996;18.980;2022-11-25T00:54:00;2.20;99.10
43647;DHT22;56152;49.996;18.980;2022-11-25T00:59:02;2.30;99.10
43647;DHT22;56152;49.996;18.980;2022-11-25T01:04:14;2.30;99.00
43647;DHT22;56152;49.996;18.980;2022-11-25T01:09:18;2.40;99.00
43647;DHT22;56152;49.996;18.980;2022-11-25T01:14:22;2.30;99.00
43647;DHT22;56152;49.996;18.980;2022-11-25T01:19:25;2.40;99.00
43647;DHT22;56152;49.996;18.980;2022-11-25T01:24:28;2.40;99.00
43647;DHT22;56152;49.996;18.980;2022-11-25T01:29:30;2.40;99.10
43647;DHT22;56152;49.996;18.980;2022-11-25T01:34:42;2.40;99.10
43647;DHT22;56152;49.996;18.980;2022-11-25T01:39:46;2.50;99.10
43647;DHT22;56152;49.996;18.980;2022-11-25T01:50:25;2.50;99.20
43647;DHT22;56152;49.996;18.980;2022-11-25T01:55:30;2.50;99.20
43647;DHT22;56152;49.996;18.980;2022-11-25T02:00:35;2.50;99.20
43647;DHT22;56152;49.996;18.980;2022-11-25T02:05:48;2.60;99.20
43647;DHT22;56152;49.996;18.980;2022-11-25T02:10:54;2.60;99.20
43647;DHT22;56152;49.996;18.980;2022-11-25T02:15:56;2.60;99.30
43647;DHT22;56152;49.996;18.980;2022-11-25T02:20:59;2.60;99.30
43647;DHT22;56152;49.996;18.980;2022-11-25T02:26:06;2.60;99.30
43647;DHT22;56152;49.996;18.980;2022-11-25T02:31:08;2.70;99.30
43647;DHT22;56152;49.996;18.980;2022-11-25T02:36:15;2.70;99.30
43647;DHT22;56152;49.996;18.980;2022-11-25T02:41:23;2.60;99.30
43647;DHT22;56152;49.996;18.980;2022-11-25T02:46:29;2.60;99.30
43647;DHT22;56152;49.996;18.980;2022-11-25T02:51:38;2.60;99.30
43647;DHT22;56152;49.996;18.980;2022-11-25T02:56:42;2.60;99.30
43647;DHT22;56152;49.996;18.980;2022-11-25T03:01:50;2.60;99.30
43647;DHT22;56152;49.996;18.980;2022-11-25T03:06:52;2.60;99.40
43647;DHT22;56152;49.996;18.980;2022-11-25T03:11:56;2.60;99.40
43647;DHT22;56152;49.996;18.980;2022-11-25T03:17:15;2.60;99.40
43647;DHT22;56152;49.996;18.980;2022-11-25T03:22:17;2.60;99.40
43647;DHT22;56152;49.996;18.980;2022-11-25T03:27:21;2.70;99.40
43647;DHT22;56152;49.996;18.980;2022-11-25T03:32:22;2.70;99.40
43647;DHT22;56152;49.996;18.980;2022-11-25T03:37:26;2.70;99.40
43647;DHT22;56152;49.996;18.980;2022-11-25T03:42:30;2.80;99.50
43647;DHT22;56152;49.996;18.980;2022-11-25T03:47:32;2.80;99.40
43647;DHT22;56152;49.996;18.980;2022-11-25T03:52:34;2.70;99.30
43647;DHT22;56152;49.996;18.980;2022-11-25T03:57:41;2.80;99.40
43647;DHT22;56152;49.996;18.980;2022-11-25T04:02:46;2.80;99.40
43647;DHT22;56152;49.996;18.980;2022-11-25T04:07:50;2.80;99.40
43647;DHT22;56152;49.996;18.980;2022-11-25T04:12:54;2.80;99.40
43647;DHT22;56152;49.996;18.980;2022-11-25T04:17:56;2.80;99.40
43647;DHT22;56152;49.996;18.980;2022-11-25T04:22:59;2.80;99.40
43647;DHT22;56152;49.996;18.980;2022-11-25T04:28:03;2.90;99.40
43647;DHT22;56152;49.996;18.980;2022-11-25T04:33:07;2.90;99.50
43647;DHT22;56152;49.996;18.980;2022-11-25T04:38:09;2.80;99.50
43647;DHT22;56152;49.996;18.980;2022-11-25T04:43:24;2.90;99.50
43647;DHT22;56152;49.996;18.980;2022-11-25T04:48:26;2.90;99.50
43647;DHT22;56152;49.996;18.980;2022-11-25T04:53:28;2.90;99.50
43647;DHT22;56152;49.996;18.980;2022-11-25T04:58:36;2.90;99.50
43647;DHT22;56152;49.996;18.980;2022-11-25T05:03:55;2.90;99.50
43647;DHT22;56152;49.996;18.980;2022-11-25T05:09:03;2.90;99.50
43647;DHT22;56152;49.996;18.980;2022-11-25T05:14:07;2.90;99.50
43647;DHT22;56152;49.996;18.980;2022-11-25T05:19:09;2.90;99.50
43647;DHT22;56152;49.996;18.980;2022-11-25T05:24:11;2.90;99.50
43647;DHT22;56152;49.996;18.980;2022-11-25T05:29:14;2.90;99.50
43647;DHT22;56152;49.996;18.980;2022-11-25T05:34:16;2.90;99.50
43647;DHT22;56152;49.996;18.980;2022-11-25T05:39:18;2.90;99.60
43647;DHT22;56152;49.996;18.980;2022-11-25T05:44:22;2.90;99.60
43647;DHT22;56152;49.996;18.980;2022-11-25T05:49:36;2.90;99.60
43647;DHT22;56152;49.996;18.980;2022-11-25T05:54:38;2.90;99.70
43647;DHT22;56152;49.996;18.980;2022-11-25T05:59:42;2.90;99.70
43647;DHT22;56152;49.996;18.980;2022-11-25T06:04:44;2.90;99.70
43647;DHT22;56152;49.996;18.980;2022-11-25T06:09:46;2.90;99.70
43647;DHT22;56152;49.996;18.980;2022-11-25T06:14:51;2.90;99.70
43647;DHT22;56152;49.996;18.980;2022-11-25T06:19:53;2.90;99.70
43647;DHT22;56152;49.996;18.980;2022-11-25T06:24:55;2.90;99.70
43647;DHT22;56152;49.996;18.980;2022-11-25T06:30:01;2.90;99.70
43647;DHT22;56152;49.996;18.980;2022-11-25T06:35:04;2.90;99.70
43647;DHT22;56152;49.996;18.980;2022-11-25T06:40:07;3.00;99.70
43647;DHT22;56152;49.996;18.980;2022-11-25T06:45:11;3.00;99.70
43647;DHT22;56152;49.996;18.980;2022-11-25T06:50:13;3.00;99.70
43647;DHT22;56152;49.996;18.980;2022-11-25T06:55:15;3.00;99.70
43647;DHT22;56152;49.996;18.980;2022-11-25T07:00:19;3.10;99.80
43647;DHT22;56152;49.996;18.980;2022-11-25T07:05:22;3.10;99.70
43647;DHT22;56152;49.996;18.980;2022-11-25T07:10:25;3.10;99.70
43647;DHT22;56152;49.996;18.980;2022-11-25T07:15:30;3.10;99.70
43647;DHT22;56152;49.996;18.980;2022-11-25T07:20:31;3.20;99.70
43647;DHT22;56152;49.996;18.980;2022-11-25T07:25:33;3.20;99.70
43647;DHT22;56152;49.996;18.980;2022-11-25T07:30:37;3.30;99.70
43647;DHT22;56152;49.996;18.980;2022-11-25T07:35:39;3.30;99.60
43647;DHT22;56152;49.996;18.980;2022-11-25T07:40:41;3.40;99.60
43647;DHT22;56152;49.996;18.980;2022-11-25T07:45:44;3.40;99.50
43647;DHT22;56152;49.996;18.980;2022-11-25T07:50:46;3.50;99.50
43647;DHT22;56152;49.996;18.980;2022-11-25T07:55:49;3.60;99.40
43647;DHT22;56152;49.996;18.980;2022-11-25T08:00:53;3.70;99.40
43647;DHT22;56152;49.996;18.980;2022-11-25T08:06:01;3.80;99.30
43647;DHT22;56152;49.996;18.980;2022-11-25T08:11:06;3.90;99.30
43647;DHT22;56152;49.996;18.980;2022-11-25T08:16:21;3.90;99.30
43647;DHT22;56152;49.996;18.980;2022-11-25T08:21:24;4.00;99.20
43647;DHT22;56152;49.996;18.980;2022-11-25T08:26:29;4.10;99.20
43647;DHT22;56152;49.996;18.980;2022-11-25T08:31:36;4.20;99.10
43647;DHT22;56152;49.996;18.980;2022-11-25T08:36:39;4.30;99.10
43647;DHT22;56152;49.996;18.980;2022-11-25T08:41:40;4.30;99.10
43647;DHT22;56152;49.996;18.980;2022-11-25T08:46:53;4.40;99.10
43647;DHT22;56152;49.996;18.980;2022-11-25T08:51:55;4.50;99.10
43647;DHT22;56152;49.996;18.980;2022-11-25T08:57:00;4.50;99.00
43647;DHT22;56152;49.996;18.980;2022-11-25T09:02:05;4.50;99.00
43647;DHT22;56152;49.996;18.980;2022-11-25T09:07:12;4.60;99.00
43647;DHT22;56152;49.996;18.980;2022-11-25T09:12:14;4.60;98.90
43647;DHT22;56152;49.996;18.980;2022-11-25T09:17:17;4.70;99.00
43647;DHT22;56152;49.996;18.980;2022-11-25T09:22:19;4.70;98.90
43647;DHT22;56152;49.996;18.980;2022-11-25T09:27:32;4.80;98.90
43647;DHT22;56152;49.996;18.980;2022-11-25T09:32:35;4.80;98.90
43647;DHT22;56152;49.996;18.980;2022-11-25T09:37:38;4.90;98.90
43647;DHT22;56152;49.996;18.980;2022-11-25T09:42:48;4.90;98.80
43647;DHT22;56152;49.996;18.980;2022-11-25T09:48:24;4.90;98.80
43647;DHT22;56152;49.996;18.980;2022-11-25T09:53:39;4.90;98.80
43647;DHT22;56152;49.996;18.980;2022-11-25T09:58:47;5.00;98.80
43647;DHT22;56152;49.996;18.980;2022-11-25T10:03:55;5.00;98.70
43647;DHT22;56152;49.996;18.980;2022-11-25T10:09:02;5.10;98.60
43647;DHT22;56152;49.996;18.980;2022-11-25T10:14:07;5.20;98.60
43647;DHT22;56152;49.996;18.980;2022-11-25T10:19:28;5.10;98.50
43647;DHT22;56152;49.996;18.980;2022-11-25T10:24:34;5.10;98.50
43647;DHT22;56152;49.996;18.980;2022-11-25T10:29:37;5.10;98.50
43647;DHT22;56152;49.996;18.980;2022-11-25T10:34:44;5.10;98.50
43647;DHT22;56152;49.996;18.980;2022-11-25T10:39:47;5.20;98.60
43647;DHT22;56152;49.996;18.980;2022-11-25T10:44:51;5.30;98.60
43647;DHT22;56152;49.996;18.980;2022-11-25T10:50:12;5.40;98.50
43647;DHT22;56152;49.996;18.980;2022-11-25T10:55:16;5.50;98.50
43647;DHT22;56152;49.996;18.980;2022-11-25T11:00:31;5.50;98.40
43647;DHT22;56152;49.996;18.980;2022-11-25T11:05:44;5.70;98.40
43647;DHT22;56152;49.996;18.980;2022-11-25T11:10:47;5.80;98.30
43647;DHT22;56152;49.996;18.980;2022-11-25T11:16:22;5.90;98.30
43647;DHT22;56152;49.996;18.980;2022-11-25T11:21:39;6.00;98.20
43647;DHT22;56152;49.996;18.980;2022-11-25T11:26:42;6.20;98.10
43647;DHT22;56152;49.996;18.980;2022-11-25T11:31:47;6.30;97.90
43647;DHT22;56152;49.996;18.980;2022-11-25T11:37:16;6.40;97.90
43647;DHT22;56152;49.996;18.980;2022-11-25T11:42:28;6.50;97.70
43647;DHT22;56152;49.996;18.980;2022-11-25T11:47:52;6.50;97.70
43647;DHT22;56152;49.996;18.980;2022-11-25T11:53:09;6.50;97.70
43647;DHT22;56152;49.996;18.980;2022-11-25T11:58:17;6.60;97.70
43647;DHT22;56152;49.996;18.980;2022-11-25T12:03:24;6.60;97.60
43647;DHT22;56152;49.996;18.980;2022-11-25T12:08:32;6.60;97.60
43647;DHT22;56152;49.996;18.980;2022-11-25T12:13:42;6.60;97.60
43647;DHT22;56152;49.996;18.980;2022-11-25T12:18:49;6.60;97.60
43647;DHT22;56152;49.996;18.980;2022-11-25T12:23:59;6.50;97.60
43647;DHT22;56152;49.996;18.980;2022-11-25T12:29:08;6.50;97.70
43647;DHT22;56152;49.996;18.980;2022-11-25T12:34:16;6.50;97.70
43647;DHT22;56152;49.996;18.980;2022-11-25T12:39:27;6.50;97.60
43647;DHT22;56152;49.996;18.980;2022-11-25T12:44:40;6.50;97.60
43647;DHT22;56152;49.996;18.980;2022-11-25T12:49:48;6.60;97.70
43647;DHT22;56152;49.996;18.980;2022-11-25T12:55:08;6.70;97.50
43647;DHT22;56152;49.996;18.980;2022-11-25T13:00:13;6.70;97.50
43647;DHT22;56152;49.996;18.980;2022-11-25T13:05:58;6.70;97.40
43647;DHT22;56152;49.996;18.980;2022-11-25T13:11:28;6.70;97.40
43647;DHT22;56152;49.996;18.980;2022-11-25T13:16:38;6.70;97.40
43647;DHT22;56152;49.996;18.980;2022-11-25T13:21:55;6.70;97.40
43647;DHT22;56152;49.996;18.980;2022-11-25T13:26:59;6.60;97.40
43647;DHT22;56152;49.996;18.980;2022-11-25T13:32:03;6.60;97.50
43647;DHT22;56152;49.996;18.980;2022-11-25T13:37:33;6.60;97.50
43647;DHT22;56152;49.996;18.980;2022-11-25T13:42:42;6.50;97.50
43647;DHT22;56152;49.996;18.980;2022-11-25T13:47:48;6.50;97.50
43647;DHT22;56152;49.996;18.980;2022-11-25T13:52:56;6.60;97.60
43647;DHT22;56152;49.996;18.980;2022-11-25T13:58:03;6.70;97.40
43647;DHT22;56152;49.996;18.980;2022-11-25T14:08:44;7.00;97.10
43647;DHT22;56152;49.996;18.980;2022-11-25T14:14:07;7.00;96.90
43647;DHT22;56152;49.996;18.980;2022-11-25T14:25:08;7.00;96.90
43647;DHT22;56152;49.996;18.980;2022-11-25T14:30:16;6.90;96.90
43647;DHT22;56152;49.996;18.980;2022-11-25T14:35:21;6.90;97.00
43647;DHT22;56152;49.996;18.980;2022-11-25T14:40:29;6.80;97.00
43647;DHT22;56152;49.996;18.980;2022-11-25T14:45:36;6.80;97.00
43647;DHT22;56152;49.996;18.980;2022-11-25T14:50:53;6.70;97.10
43647;DHT22;56152;49.996;18.980;2022-11-25T14:55:59;6.60;97.10
43647;DHT22;56152;49.996;18.980;2022-11-25T15:01:16;6.60;97.20
43647;DHT22;56152;49.996;18.980;2022-11-25T15:06:21;6.50;97.20
43647;DHT22;56152;49.996;18.980;2022-11-25T15:11:25;6.40;97.20
43647;DHT22;56152;49.996;18.980;2022-11-25T15:16:34;6.30;97.40
43647;DHT22;56152;49.996;18.980;2022-11-25T15:21:38;6.30;97.30
43647;DHT22;56152;49.996;18.980;2022-11-25T15:26:50;6.30;97.30
43647;DHT22;56152;49.996;18.980;2022-11-25T15:31:57;6.20;97.30
43647;DHT22;56152;49.996;18.980;2022-11-25T15:37:02;6.10;97.40
43647;DHT22;56152;49.996;18.980;2022-11-25T15:42:16;6.00;97.40
43647;DHT22;56152;49.996;18.980;2022-11-25T15:47:23;5.90;97.50
43647;DHT22;56152;49.996;18.980;2022-11-25T15:52:27;5.80;97.50
43647;DHT22;56152;49.996;18.980;2022-11-25T15:57:34;5.80;97.60
43647;DHT22;56152;49.996;18.980;2022-11-25T16:02:52;5.70;97.60
43647;DHT22;56152;49.996;18.980;2022-11-25T16:08:22;5.60;97.70
43647;DHT22;56152;49.996;18.980;2022-11-25T16:13:31;5.60;97.70
43647;DHT22;56152;49.996;18.980;2022-11-25T16:18:38;5.60;97.80
43647;DHT22;56152;49.996;18.980;2022-11-25T16:23:43;5.40;97.80
43647;DHT22;56152;49.996;18.980;2022-11-25T16:28:51;5.40;97.80
43647;DHT22;56152;49.996;18.980;2022-11-25T16:33:57;5.40;97.80
43647;DHT22;56152;49.996;18.980;2022-11-25T16:39:01;5.40;97.90
43647;DHT22;56152;49.996;18.980;2022-11-25T16:44:16;5.40;97.90
43647;DHT22;56152;49.996;18.980;2022-11-25T16:49:26;5.40;97.90
43647;DHT22;56152;49.996;18.980;2022-11-25T16:54:32;5.40;97.80
43647;DHT22;56152;49.996;18.980;2022-11-25T16:59:36;5.40;97.80
43647;DHT22;56152;49.996;18.980;2022-11-25T17:04:41;5.40;97.80
43647;DHT22;56152;49.996;18.980;2022-11-25T17:09:57;5.30;97.80
43647;DHT22;56152;49.996;18.980;2022-11-25T17:14:59;5.20;97.90
43647;DHT22;56152;49.996;18.980;2022-11-25T17:20:05;5.10;98.00
43647;DHT22;56152;49.996;18.980;2022-11-25T17:25:14;5.10;98.10
43647;DHT22;56152;49.996;18.980;2022-11-25T17:30:18;5.00;98.20
43647;DHT22;56152;49.996;18.980;2022-11-25T17:35:24;4.90;98.20
43647;DHT22;56152;49.996;18.980;2022-11-25T17:40:30;4.90;98.30
43647;DHT22;56152;49.996;18.980;2022-11-25T17:45:34;4.90;98.30
43647;DHT22;56152;49.996;18.980;2022-11-25T17:50:45;4.90;98.30
43647;DHT22;56152;49.996;18.980;2022-11-25T17:55:50;4.90;98.40
43647;DHT22;56152;49.996;18.980;2022-11-25T18:00:52;4.90;98.40
43647;DHT22;56152;49.996;18.980;2022-11-25T18:05:58;4.90;98.30
43647;DHT22;56152;49.996;18.980;2022-11-25T18:11:04;4.80;98.40
43647;DHT22;56152;49.996;18.980;2022-11-25T18:16:07;4.80;98.40
43647;DHT22;56152;49.996;18.980;2022-11-25T18:21:11;4.70;98.40
43647;DHT22;56152;49.996;18.980;2022-11-25T18:26:17;4.70;98.40
43647;DHT22;56152;49.996;18.980;2022-11-25T18:31:20;4.70;98.40
43647;DHT22;56152;49.996;18.980;2022-11-25T18:36:27;4.70;98.40
43647;DHT22;56152;49.996;18.980;2022-11-25T18:41:28;4.70;98.40
43647;DHT22;56152;49.996;18.980;2022-11-25T18:46:34;4.70;98.40
43647;DHT22;56152;49.996;18.980;2022-11-25T18:51:38;4.70;98.40
43647;DHT22;56152;49.996;18.980;2022-11-25T18:56:44;4.70;98.40
43647;DHT22;56152;49.996;18.980;2022-11-25T19:01:46;4.70;98.30
43647;DHT22;56152;49.996;18.980;2022-11-25T19:06:50;4.70;98.30
43647;DHT22;56152;49.996;18.980;2022-11-25T19:11:54;4.70;98.50
43647;DHT22;56152;49.996;18.980;2022-11-25T19:16:59;5.00;98.70
43647;DHT22;56152;49.996;18.980;2022-11-25T19:22:09;5.30;98.10
43647;DHT22;56152;49.996;18.980;2022-11-25T19:27:15;5.50;97.80
43647;DHT22;56152;49.996;18.980;2022-11-25T19:32:20;5.60;97.60
43647;DHT22;56152;49.996;18.980;2022-11-25T19:37:29;5.60;97.40
43647;DHT22;56152;49.996;18.980;2022-11-25T19:42:30;5.60;97.30
43647;DHT22;56152;49.996;18.980;2022-11-25T19:47:32;5.60;97.30
43647;DHT22;56152;49.996;18.980;2022-11-25T19:52:36;5.60;97.20
43647;DHT22;56152;49.996;18.980;2022-11-25T19:57:39;5.50;97.20
43647;DHT22;56152;49.996;18.980;2022-11-25T20:02:44;5.50;97.20
43647;DHT22;56152;49.996;18.980;2022-11-25T20:07:48;5.50;97.20
43647;DHT22;56152;49.996;18.980;2022-11-25T20:12:55;5.50;97.10
43647;DHT22;56152;49.996;18.980;2022-11-25T20:17:59;5.50;97.10
43647;DHT22;56152;49.996;18.980;2022-11-25T20:23:05;5.50;97.10
43647;DHT22;56152;49.996;18.980;2022-11-25T20:28:14;5.50;97.20
43647;DHT22;56152;49.996;18.980;2022-11-25T20:33:16;5.50;97.20
43647;DHT22;56152;49.996;18.980;2022-11-25T20:38:23;5.50;97.20
43647;DHT22;56152;49.996;18.980;2022-11-25T20:43:29;5.50;97.20
43647;DHT22;56152;49.996;18.980;2022-11-25T20:48:32;5.50;97.20
43647;DHT22;56152;49.996;18.980;2022-11-25T20:53:42;5.40;97.10
43647;DHT22;56152;49.996;18.980;2022-11-25T20:58:46;5.20;97.20
43647;DHT22;56152;49.996;18.980;2022-11-25T21:03:49;5.20;97.40
43647;DHT22;56152;49.996;18.980;2022-11-25T21:08:54;5.10;97.40
43647;DHT22;56152;49.996;18.980;2022-11-25T21:13:57;5.00;97.70
43647;DHT22;56152;49.996;18.980;2022-11-25T21:19:00;5.00;97.50
43647;DHT22;56152;49.996;18.980;2022-11-25T21:24:09;5.00;97.50
43647;DHT22;56152;49.996;18.980;2022-11-25T21:29:17;4.90;97.60
43647;DHT22;56152;49.996;18.980;2022-11-25T21:34:21;4.80;97.60
43647;DHT22;56152;49.996;18.980;2022-11-25T21:39:32;4.70;97.60
43647;DHT22;56152;49.996;18.980;2022-11-25T21:44:37;4.40;97.70
43647;DHT22;56152;49.996;18.980;2022-11-25T21:49:40;4.20;97.80
43647;DHT22;56152;49.996;18.980;2022-11-25T21:54:44;4.00;97.90
43647;DHT22;56152;49.996;18.980;2022-11-25T21:59:46;3.80;98.10
43647;DHT22;56152;49.996;18.980;2022-11-25T22:04:59;3.60;98.20
43647;DHT22;56152;49.996;18.980;2022-11-25T22:10:06;3.40;98.30
43647;DHT22;56152;49.996;18.980;2022-11-25T22:15:12;3.20;98.40
43647;DHT22;56152;49.996;18.980;2022-11-25T22:20:33;3.10;98.50
43647;DHT22;56152;49.996;18.980;2022-11-25T22:25:37;3.00;98.50
43647;DHT22;56152;49.996;18.980;2022-11-25T22:30:40;2.90;98.60
43647;DHT22;56152;49.996;18.980;2022-11-25T22:35:48;2.80;98.60
43647;DHT22;56152;49.996;18.980;2022-11-25T22:40:57;2.70;98.60
43647;DHT22;56152;49.996;18.980;2022-11-25T22:46:00;2.60;98.70
43647;DHT22;56152;49.996;18.980;2022-11-25T22:51:04;2.60;98.70
43647;DHT22;56152;49.996;18.980;2022-11-25T22:56:15;2.50;98.60
43647;DHT22;56152;49.996;18.980;2022-11-25T23:01:18;2.40;98.60
43647;DHT22;56152;49.996;18.980;2022-11-25T23:06:21;2.40;98.70
43647;DHT22;56152;49.996;18.980;2022-11-25T23:11:25;2.30;98.70
43647;DHT22;56152;49.996;18.980;2022-11-25T23:16:27;2.10;98.60
43647;DHT22;56152;49.996;18.980;2022-11-25T23:21:31;2.00;98.60
43647;DHT22;56152;49.996;18.980;2022-11-25T23:26:38;1.90;98.70
43647;DHT22;56152;49.996;18.980;2022-11-25T23:31:41;1.80;98.80
43647;DHT22;56152;49.996;18.980;2022-11-25T23:36:44;1.70;98.70
43647;DHT22;56152;49.996;18.980;2022-11-25T23:41:48;1.50;98.70
43647;DHT22;56152;49.996;18.980;2022-11-25T23:46:51;1.30;98.70
43647;DHT22;56152;49.996;18.980;2022-11-25T23:51:55;1.20;98.80
43647;DHT22;56152;49.996;18.980;2022-11-25T23:57:00;1.10;98.90
